createdAt,value
2019-02-14T00:02:14.517Z,31.00
2019-02-14T00:04:46.264Z,33.07
2019-02-14T00:07:17.870Z,49.57
2019-02-14T00:09:49.547Z,50.67
2019-02-14T00:12:21.216Z,238.10
2019-02-14T00:14:54.018Z,284.77
2019-02-14T00:17:25.983Z,147.67
2019-02-14T00:19:57.864Z,120.53
2019-02-14T00:22:29.770Z,69.23
2019-02-14T00:25:01.554Z,40.83
2019-02-14T00:27:34.198Z,37.50
2019-02-14T00:30:05.986Z,53.47
2019-02-14T00:32:38.060Z,81.97
2019-02-14T00:35:09.759Z,70.33
2019-02-14T00:37:42.414Z,37.37
2019-02-14T00:40:14.076Z,37.63
2019-02-14T00:42:45.668Z,37.23
2019-02-14T00:45:17.277Z,34.23
2019-02-14T00:47:48.938Z,34.97
2019-02-14T00:50:20.764Z,35.07
2019-02-14T00:52:52.415Z,31.60
2019-02-14T00:55:24.193Z,33.67
2019-02-14T00:57:55.986Z,30.47
2019-02-14T01:00:27.868Z,28.00
2019-02-14T01:02:59.778Z,28.83
2019-02-14T01:05:33.708Z,29.33
2019-02-14T01:08:04.672Z,29.10
2019-02-14T01:10:36.347Z,28.87
2019-02-14T01:13:08.009Z,30.07
2019-02-14T01:15:40.062Z,30.67
2019-02-14T01:18:11.674Z,30.73
2019-02-14T01:20:43.364Z,36.30
2019-02-14T01:23:15.013Z,33.07
2019-02-14T01:25:46.695Z,33.57
2019-02-14T01:28:18.273Z,31.03
2019-02-14T01:30:49.969Z,29.00
2019-02-14T01:33:21.650Z,28.20
2019-02-14T01:35:53.270Z,28.70
2019-02-14T01:38:24.870Z,29.77
2019-02-14T01:40:56.658Z,28.60
2019-02-14T01:43:28.274Z,31.20
2019-02-14T01:46:00.038Z,27.97
2019-02-14T01:48:31.709Z,30.30
2019-02-14T01:51:03.414Z,31.83
2019-02-14T01:53:35.098Z,29.60
2019-02-14T01:56:06.710Z,31.97
2019-02-14T01:58:38.380Z,29.80
2019-02-14T02:01:10.977Z,30.43
2019-02-14T02:03:42.624Z,28.40
2019-02-14T02:06:14.303Z,31.07
2019-02-14T02:08:45.960Z,33.30
2019-02-14T02:11:17.645Z,37.00
2019-02-14T02:13:49.315Z,30.07
2019-02-14T02:16:21.101Z,29.77
2019-02-14T02:18:52.756Z,29.87
2019-02-14T02:21:24.420Z,29.30
2019-02-14T02:23:56.082Z,30.60
2019-02-14T02:26:27.910Z,34.37
2019-02-14T02:28:59.798Z,26.37
2019-02-14T02:31:31.488Z,31.57
2019-02-14T02:34:03.079Z,33.30
2019-02-14T02:36:34.694Z,31.03
2019-02-14T02:39:08.129Z,29.93
2019-02-14T02:41:39.906Z,31.53
2019-02-14T02:44:11.512Z,32.23
2019-02-14T02:46:43.196Z,37.57
2019-02-14T02:49:14.846Z,43.80
2019-02-14T02:51:46.432Z,40.90
2019-02-14T02:54:18.031Z,39.77
2019-02-14T02:56:49.654Z,39.20
2019-02-14T02:59:22.218Z,30.30
2019-02-14T03:01:53.800Z,30.00
2019-02-14T03:04:25.560Z,27.17
2019-02-14T03:06:57.179Z,25.63
2019-02-14T03:09:29.029Z,29.37
2019-02-14T03:12:01.006Z,26.37
2019-02-14T03:14:33.224Z,25.57
2019-02-14T03:17:04.917Z,26.90
2019-02-14T03:19:36.572Z,26.90
2019-02-14T03:22:08.253Z,24.90
2019-02-14T03:24:39.872Z,25.33
2019-02-14T03:27:11.539Z,28.80
2019-02-14T03:29:43.199Z,23.43
2019-02-14T03:32:15.193Z,25.67
2019-02-14T03:34:46.852Z,27.43
2019-02-14T03:37:18.466Z,29.27
2019-02-14T03:39:50.123Z,25.93
2019-02-14T03:42:21.850Z,26.63
2019-02-14T03:44:53.559Z,29.20
2019-02-14T03:47:25.183Z,29.77
2019-02-14T03:49:57.009Z,25.13
2019-02-14T03:52:28.614Z,29.90
2019-02-14T03:55:00.233Z,26.73
2019-02-14T03:57:31.892Z,29.83
2019-02-14T04:00:03.500Z,29.10
2019-02-14T04:02:36.000Z,30.80
2019-02-14T04:05:07.763Z,31.47
2019-02-14T04:07:39.444Z,29.17
2019-02-14T04:10:12.058Z,33.90
2019-02-14T04:12:43.746Z,33.90
2019-02-14T04:15:15.912Z,30.77
2019-02-14T04:17:47.492Z,31.53
2019-02-14T04:20:19.088Z,30.13
2019-02-14T04:22:50.871Z,30.67
2019-02-14T04:25:22.470Z,34.80
2019-02-14T04:27:54.077Z,27.73
2019-02-14T04:30:26.066Z,28.63
2019-02-14T04:32:57.976Z,29.23
2019-02-14T04:35:29.816Z,26.83
2019-02-14T04:38:01.432Z,29.93
2019-02-14T04:40:33.813Z,30.17
2019-02-14T04:43:05.566Z,27.60
2019-02-14T04:45:37.231Z,30.93
2019-02-14T04:48:08.819Z,32.13
2019-02-14T04:50:41.511Z,32.37
2019-02-14T04:53:13.119Z,30.80
2019-02-14T04:55:44.798Z,34.67
2019-02-14T04:58:16.411Z,33.57
2019-02-14T05:00:48.075Z,40.00
2019-02-14T05:03:19.697Z,34.97
2019-02-14T05:05:51.284Z,35.67
2019-02-14T05:08:22.899Z,47.83
2019-02-14T05:10:54.492Z,39.03
2019-02-14T05:13:26.220Z,40.30
2019-02-14T05:15:57.920Z,46.00
2019-02-14T05:18:29.854Z,43.60
2019-02-14T05:21:01.446Z,66.17
2019-02-14T05:23:33.072Z,46.40
2019-02-14T05:26:04.849Z,41.93
2019-02-14T05:28:36.527Z,46.97
2019-02-14T05:31:08.110Z,48.73
2019-02-14T05:33:39.739Z,46.33
2019-02-14T05:36:11.334Z,49.00
2019-02-14T05:38:43.026Z,44.13
2019-02-14T05:41:15.628Z,43.97
2019-02-14T05:43:47.234Z,42.10
2019-02-14T05:46:18.831Z,41.83
2019-02-14T05:48:50.518Z,42.23
2019-02-14T05:51:22.114Z,38.57
2019-02-14T05:53:53.736Z,41.73
2019-02-14T05:56:25.338Z,46.67
2019-02-14T05:58:57.083Z,41.83
2019-02-14T06:01:29.019Z,48.17
2019-02-14T06:04:00.965Z,37.50
2019-02-14T06:06:32.869Z,39.50
2019-02-14T06:09:05.934Z,43.70
2019-02-14T06:11:37.525Z,41.47
2019-02-14T06:14:09.145Z,47.30
2019-02-14T06:16:41.712Z,43.60
2019-02-14T06:19:13.322Z,40.10
2019-02-14T06:21:44.924Z,40.47
2019-02-14T06:24:16.535Z,42.03
2019-02-14T06:26:48.201Z,48.00
2019-02-14T06:29:20.726Z,45.97
2019-02-14T06:31:52.405Z,42.13
2019-02-14T06:34:25.008Z,49.17
2019-02-14T06:36:56.668Z,46.50
2019-02-14T06:39:28.344Z,49.73
2019-02-14T06:42:03.974Z,60.83
2019-02-14T06:44:42.410Z,70.07
2019-02-14T06:47:17.050Z,62.37
2019-02-14T06:49:50.796Z,61.10
2019-02-14T06:52:24.328Z,62.13
2019-02-14T06:54:56.697Z,55.20
2019-02-14T06:57:28.924Z,47.33
2019-02-14T07:00:01.000Z,45.40
2019-02-14T07:02:32.931Z,50.37
2019-02-14T07:05:04.552Z,50.57
2019-02-14T07:07:40.170Z,50.40
2019-02-14T07:10:15.082Z,51.00
2019-02-14T07:12:47.684Z,53.57
2019-02-14T07:15:19.786Z,50.23
2019-02-14T07:17:51.966Z,46.37
2019-02-14T07:20:24.025Z,54.07
2019-02-14T07:22:55.980Z,50.83
2019-02-14T07:25:28.686Z,53.57
2019-02-14T07:28:00.363Z,62.33
2019-02-14T07:30:33.795Z,50.27
2019-02-14T07:33:05.953Z,53.50
2019-02-14T07:35:37.625Z,53.03
2019-02-14T07:38:09.282Z,48.10
2019-02-14T07:40:41.000Z,50.87
2019-02-14T07:43:12.618Z,45.77
2019-02-14T07:45:44.327Z,55.90
2019-02-14T07:48:15.928Z,56.87
2019-02-14T07:50:47.619Z,49.37
2019-02-14T07:53:19.286Z,44.07
2019-02-14T07:55:50.983Z,46.83
2019-02-14T07:58:22.572Z,38.50
2019-02-14T08:00:54.187Z,38.27
2019-02-14T08:03:25.778Z,41.67
2019-02-14T08:05:57.398Z,48.33
2019-02-14T08:08:29.316Z,39.83
2019-02-14T08:11:01.193Z,41.93
2019-02-14T08:13:33.062Z,40.13
2019-02-14T08:16:04.719Z,44.93
2019-02-14T08:18:36.392Z,46.20
2019-02-14T08:21:09.009Z,46.83
2019-02-14T08:23:40.670Z,46.17
2019-02-14T08:26:12.280Z,50.60
2019-02-14T08:28:43.947Z,54.63
2019-02-14T08:31:15.566Z,47.60
2019-02-14T08:33:47.250Z,41.83
2019-02-14T08:36:18.924Z,54.37
2019-02-14T08:38:50.532Z,53.47
2019-02-14T08:41:22.116Z,42.40
2019-02-14T08:43:53.779Z,54.13
2019-02-14T08:46:25.411Z,41.53
2019-02-14T08:48:57.171Z,49.17
2019-02-14T08:51:28.777Z,50.87
2019-02-14T08:54:00.434Z,50.87
2019-02-14T08:56:32.116Z,46.37
2019-02-14T08:59:03.721Z,51.03
2019-02-14T09:01:35.403Z,40.93
2019-02-14T09:04:07.009Z,47.27
2019-02-14T09:06:38.630Z,46.20
2019-02-14T09:09:10.249Z,36.70
2019-02-14T09:11:41.979Z,40.83
2019-02-14T09:14:13.585Z,43.33
2019-02-14T09:16:45.199Z,34.90
2019-02-14T09:19:16.856Z,37.60
2019-02-14T09:21:48.463Z,45.03
2019-02-14T09:24:20.067Z,50.70
2019-02-14T09:26:51.704Z,88.97
2019-02-14T09:29:23.431Z,61.77
2019-02-14T09:31:55.033Z,53.57
2019-02-14T09:34:26.954Z,36.57
2019-02-14T09:36:58.641Z,40.07
2019-02-14T09:39:30.249Z,35.27
2019-02-14T09:42:01.938Z,39.13
2019-02-14T09:44:33.518Z,35.33
2019-02-14T09:47:05.354Z,34.00
2019-02-14T09:49:37.023Z,31.17
2019-02-14T09:52:08.646Z,31.20
2019-02-14T09:54:40.247Z,29.17
2019-02-14T09:57:11.864Z,33.97
2019-02-14T09:59:43.531Z,36.97
2019-02-14T10:02:15.133Z,26.57
2019-02-14T10:04:46.723Z,33.97
2019-02-14T10:07:18.413Z,26.17
2019-02-14T10:09:50.007Z,30.47
2019-02-14T10:12:21.710Z,47.77
2019-02-14T10:14:53.379Z,37.80
2019-02-14T10:17:25.004Z,27.53
2019-02-14T10:19:56.919Z,88.07
2019-02-14T10:22:28.539Z,43.60
2019-02-14T10:25:00.334Z,41.87
2019-02-14T10:27:31.997Z,29.87
2019-02-14T10:30:03.839Z,32.10
2019-02-14T10:32:35.582Z,52.40
2019-02-14T10:35:07.311Z,33.67
2019-02-14T10:37:38.994Z,34.13
2019-02-14T10:40:11.687Z,39.13
2019-02-14T10:42:43.370Z,34.03
2019-02-14T10:45:16.247Z,30.67
2019-02-14T10:47:47.859Z,28.97
2019-02-14T10:50:19.516Z,29.60
2019-02-14T10:52:51.157Z,27.87
2019-02-14T10:55:22.760Z,20.53
2019-02-14T10:57:54.370Z,39.87
2019-02-14T11:00:26.286Z,29.20
2019-02-14T11:02:58.118Z,32.87
2019-02-14T11:05:29.952Z,29.20
2019-02-14T11:08:01.635Z,22.20
2019-02-14T11:10:33.283Z,27.53
2019-02-14T11:13:04.986Z,28.30
2019-02-14T11:15:38.559Z,25.50
2019-02-14T11:18:13.980Z,24.87
2019-02-14T11:20:49.613Z,21.53
2019-02-14T11:23:23.306Z,21.57
2019-02-14T11:25:59.345Z,22.83
2019-02-14T11:28:43.867Z,20.20
2019-02-14T11:31:19.637Z,61.30
2019-02-14T11:33:54.768Z,30.43
2019-02-14T11:36:28.100Z,28.87
2019-02-14T11:39:05.785Z,27.80
2019-02-14T11:41:51.511Z,22.00
2019-02-14T11:44:28.744Z,25.03
2019-02-14T11:47:07.651Z,49.60
2019-02-14T11:49:39.377Z,27.47
2019-02-14T11:52:12.453Z,23.30
2019-02-14T11:54:45.612Z,31.33
2019-02-14T11:57:18.731Z,21.13
2019-02-14T11:59:54.364Z,17.27
2019-02-14T12:02:31.738Z,21.23
2019-02-14T12:05:06.043Z,17.23
2019-02-14T12:07:38.763Z,23.37
2019-02-14T12:10:13.352Z,68.83
2019-02-14T12:12:45.119Z,28.77
2019-02-14T12:15:16.858Z,25.67
2019-02-14T12:17:48.578Z,55.00
2019-02-14T12:20:21.713Z,21.20
2019-02-14T12:22:55.409Z,22.87
2019-02-14T12:25:27.841Z,19.47
2019-02-14T12:28:00.255Z,23.83
2019-02-14T12:30:32.517Z,18.60
2019-02-14T12:33:04.386Z,24.70
2019-02-14T12:35:36.368Z,26.77
2019-02-14T12:38:07.999Z,32.17
2019-02-14T12:40:41.757Z,26.20
2019-02-14T12:43:16.937Z,20.57
2019-02-14T12:45:48.977Z,24.70
2019-02-14T12:48:20.979Z,37.53
2019-02-14T12:50:52.861Z,29.97
2019-02-14T12:53:24.670Z,46.97
2019-02-14T12:55:57.228Z,29.33
2019-02-14T12:58:29.253Z,26.60
2019-02-14T13:01:01.042Z,39.33
2019-02-14T13:03:34.457Z,39.37
2019-02-14T13:06:08.543Z,57.63
2019-02-14T13:08:41.453Z,31.07
2019-02-14T13:11:14.026Z,43.47
2019-02-14T13:13:49.975Z,50.63
2019-02-14T13:16:20.708Z,30.97
2019-02-14T13:18:52.808Z,25.80
2019-02-14T13:21:24.630Z,68.17
2019-02-14T13:23:56.238Z,85.10
2019-02-14T13:26:29.599Z,87.17
2019-02-14T13:29:03.451Z,62.33
2019-02-14T13:31:35.753Z,32.27
2019-02-14T13:34:08.543Z,39.17
2019-02-14T13:36:40.539Z,22.43
2019-02-14T13:39:12.591Z,28.33
2019-02-14T13:41:44.733Z,25.90
2019-02-14T13:44:16.731Z,29.70
2019-02-14T13:46:48.422Z,32.17
2019-02-14T13:49:21.421Z,35.53
2019-02-14T13:51:53.532Z,134.70
2019-02-14T13:54:25.125Z,40.97
2019-02-14T13:56:57.176Z,47.33
2019-02-14T13:59:32.179Z,34.17
2019-02-14T14:02:04.618Z,32.20
2019-02-14T14:04:37.122Z,40.20
2019-02-14T14:07:09.197Z,41.87
2019-02-14T14:09:41.646Z,49.50
2019-02-14T14:12:13.289Z,52.63
2019-02-14T14:14:45.079Z,31.03
2019-02-14T14:17:19.395Z,38.27
2019-02-14T14:19:51.867Z,31.00
2019-02-14T14:22:23.920Z,46.37
2019-02-14T14:24:57.931Z,53.57
2019-02-14T14:27:31.637Z,35.27
2019-02-14T14:30:03.701Z,39.50
2019-02-14T14:32:36.315Z,35.67
2019-02-14T14:35:08.412Z,173.77
2019-02-14T14:37:42.108Z,122.93
2019-02-14T14:40:15.375Z,198.47
2019-02-14T14:43:06.589Z,85.87
2019-02-14T14:46:07.047Z,116.73
2019-02-14T14:48:43.494Z,95.03
2019-02-14T14:51:15.457Z,44.17
2019-02-14T14:53:47.929Z,85.67
2019-02-14T14:56:19.715Z,206.03
2019-02-14T14:58:51.319Z,95.40
2019-02-14T15:01:24.598Z,60.43
2019-02-14T15:03:57.204Z,152.50
2019-02-14T15:06:29.461Z,94.80
2019-02-14T15:09:01.551Z,153.03
2019-02-14T15:11:35.267Z,106.57
2019-02-14T15:14:07.400Z,79.10
2019-02-14T15:16:39.844Z,72.93
2019-02-14T15:19:12.942Z,72.50
2019-02-14T15:21:46.002Z,63.53
2019-02-14T15:24:19.521Z,57.83
2019-02-14T15:26:51.917Z,77.47
2019-02-14T15:29:23.819Z,115.27
2019-02-14T15:31:55.567Z,62.40
2019-02-14T15:34:27.697Z,53.73
2019-02-14T15:36:59.927Z,50.07
2019-02-14T15:39:31.826Z,38.33
2019-02-14T15:42:03.413Z,45.30
2019-02-14T15:44:37.109Z,69.60
2019-02-14T15:47:09.431Z,70.17
2019-02-14T15:49:41.449Z,47.23
2019-02-14T15:52:13.390Z,85.57
2019-02-14T15:54:46.823Z,83.37
2019-02-14T15:57:20.442Z,101.00
2019-02-14T15:59:52.500Z,97.90
2019-02-14T16:02:24.747Z,74.23
2019-02-14T16:04:56.606Z,78.77
2019-02-14T16:07:30.104Z,130.17
2019-02-14T16:10:05.873Z,147.67
2019-02-14T16:12:41.064Z,115.57
2019-02-14T16:15:13.637Z,49.33
2019-02-14T16:17:46.397Z,88.83
2019-02-14T16:20:19.845Z,90.40
2019-02-14T16:22:52.194Z,61.93
2019-02-14T16:25:25.934Z,72.60
2019-02-14T16:27:59.206Z,85.13
2019-02-14T16:30:33.303Z,84.60
2019-02-14T16:33:05.314Z,79.93
2019-02-14T16:35:37.368Z,87.03
2019-02-14T16:38:11.300Z,110.53
2019-02-14T16:40:43.446Z,60.80
2019-02-14T16:43:15.994Z,64.43
2019-02-14T16:45:47.705Z,64.80
2019-02-14T16:48:21.020Z,68.10
2019-02-14T16:50:53.118Z,74.70
2019-02-14T16:53:25.615Z,70.60
2019-02-14T16:56:02.165Z,77.10
2019-02-14T16:58:33.363Z,65.07
2019-02-14T17:01:05.249Z,75.67
2019-02-14T17:03:37.190Z,56.70
2019-02-14T17:06:09.941Z,69.47
2019-02-14T17:08:42.673Z,81.93
2019-02-14T17:11:16.132Z,57.40
2019-02-14T17:13:48.426Z,88.20
2019-02-14T17:16:21.783Z,110.33
2019-02-14T17:18:55.459Z,135.73
2019-02-14T17:21:28.778Z,84.43
2019-02-14T17:24:01.357Z,73.87
2019-02-14T17:26:33.984Z,64.20
2019-02-14T17:29:06.913Z,78.50
2019-02-14T17:31:39.714Z,100.47
2019-02-14T17:34:11.852Z,126.80
2019-02-14T17:36:47.428Z,109.87
2019-02-14T17:39:21.308Z,178.70
2019-02-14T17:41:54.840Z,163.13
2019-02-14T17:44:26.725Z,216.90
2019-02-14T17:46:59.886Z,369.33
2019-02-14T17:49:32.066Z,170.73
2019-02-14T17:52:05.017Z,93.10
2019-02-14T17:54:36.813Z,108.90
2019-02-14T17:57:08.510Z,70.07
2019-02-14T17:59:42.179Z,232.57
2019-02-14T18:02:15.483Z,192.47
2019-02-14T18:04:47.455Z,76.77
2019-02-14T18:07:20.669Z,69.30
2019-02-14T18:09:52.863Z,66.17
2019-02-14T18:12:24.940Z,89.83
2019-02-14T18:14:57.084Z,85.03
2019-02-14T18:17:28.876Z,60.87
2019-02-14T18:20:01.767Z,79.40
2019-02-14T18:22:34.047Z,58.60
2019-02-14T18:25:06.651Z,68.23
2019-02-14T18:27:38.350Z,69.20
2019-02-14T18:30:10.527Z,65.33
2019-02-14T18:32:42.299Z,70.00
2019-02-14T18:35:15.041Z,67.50
2019-02-14T18:37:46.739Z,66.73
2019-02-14T18:40:18.439Z,65.60
2019-02-14T18:42:50.254Z,151.83
2019-02-14T18:45:21.965Z,90.53
2019-02-14T18:47:53.666Z,69.70
2019-02-14T18:50:25.370Z,63.17
2019-02-14T18:52:57.034Z,72.07
2019-02-14T18:55:29.158Z,78.43
2019-02-14T18:58:00.927Z,85.83
2019-02-14T19:00:32.910Z,63.13
2019-02-14T19:03:04.595Z,66.77
2019-02-14T19:05:36.272Z,71.90
2019-02-14T19:08:07.954Z,67.43
2019-02-14T19:10:40.787Z,68.07
2019-02-14T19:13:12.473Z,74.33
2019-02-14T19:15:44.077Z,76.03
2019-02-14T19:18:15.857Z,76.23
2019-02-14T19:20:47.591Z,77.80
2019-02-14T19:23:24.064Z,69.10
2019-02-14T19:25:52.639Z,65.67
2019-02-14T19:28:24.272Z,66.87
2019-02-14T19:30:56.152Z,60.43
2019-02-14T19:33:27.886Z,87.57
2019-02-14T19:35:59.697Z,98.23
2019-02-14T19:38:31.436Z,87.60
2019-02-14T19:41:03.198Z,85.03
2019-02-14T19:43:34.908Z,81.53
2019-02-14T19:46:06.652Z,72.30
2019-02-14T19:48:38.491Z,71.07
2019-02-14T19:51:10.257Z,80.33
2019-02-14T19:53:43.429Z,80.40
2019-02-14T19:56:16.636Z,88.97
2019-02-14T19:58:48.703Z,94.53
2019-02-14T20:01:20.401Z,97.77
2019-02-14T20:03:52.388Z,88.23
2019-02-14T20:06:24.283Z,80.87
2019-02-14T20:08:56.350Z,64.77
2019-02-14T20:11:36.114Z,66.67
2019-02-14T20:14:01.789Z,78.57
2019-02-14T20:16:33.531Z,92.10
2019-02-14T20:19:05.548Z,64.70
2019-02-14T20:21:37.383Z,68.57
2019-02-14T20:24:09.099Z,85.43
2019-02-14T20:26:40.800Z,66.10
2019-02-14T20:29:13.816Z,56.63
2019-02-14T20:31:46.506Z,50.10
2019-02-14T20:34:18.554Z,55.73
2019-02-14T20:36:51.979Z,57.73
2019-02-14T20:39:24.679Z,49.63
2019-02-14T20:41:56.532Z,50.63
2019-02-14T20:44:28.257Z,70.67
2019-02-14T20:47:00.036Z,61.03
2019-02-14T20:49:32.637Z,60.37
2019-02-14T20:52:04.700Z,57.87
2019-02-14T20:54:36.414Z,65.03
2019-02-14T20:57:08.106Z,111.47
2019-02-14T20:59:40.028Z,96.27
2019-02-14T21:02:12.726Z,119.90
2019-02-14T21:04:44.490Z,75.80
2019-02-14T21:07:16.538Z,67.20
2019-02-14T21:09:49.836Z,68.93
2019-02-14T21:12:22.942Z,65.77
2019-02-14T21:14:54.651Z,84.80
2019-02-14T21:17:28.875Z,92.47
2019-02-14T21:20:01.413Z,101.97
2019-02-14T21:22:34.600Z,105.10
2019-02-14T21:25:06.478Z,93.20
2019-02-14T21:27:38.446Z,59.43
2019-02-14T21:30:10.678Z,58.23
2019-02-14T21:32:42.389Z,57.27
2019-02-14T21:35:14.469Z,72.27
2019-02-14T21:37:47.234Z,54.03
2019-02-14T21:40:19.008Z,54.07
2019-02-14T21:42:50.764Z,59.97
2019-02-14T21:45:22.507Z,55.00
2019-02-14T21:47:54.269Z,50.80
2019-02-14T21:50:25.976Z,53.63
2019-02-14T21:52:57.771Z,47.90
2019-02-14T21:55:29.744Z,51.50
2019-02-14T21:58:04.643Z,46.90
2019-02-14T22:00:34.972Z,59.13
2019-02-14T22:03:06.973Z,75.20
2019-02-14T22:05:39.051Z,100.13
2019-02-14T22:08:10.830Z,124.07
2019-02-14T22:10:42.526Z,173.20
2019-02-14T22:13:14.224Z,194.27
2019-02-14T22:15:46.034Z,196.50
2019-02-14T22:18:17.796Z,175.13
2019-02-14T22:20:49.466Z,182.97
2019-02-14T22:23:21.541Z,182.00
2019-02-14T22:25:53.130Z,174.73
2019-02-14T22:28:24.795Z,143.23
2019-02-14T22:30:56.481Z,123.50
2019-02-14T22:33:28.080Z,147.47
2019-02-14T22:35:59.957Z,133.93
2019-02-14T22:38:31.568Z,117.10
2019-02-14T22:41:03.181Z,97.80
2019-02-14T22:43:34.811Z,83.07
2019-02-14T22:46:06.535Z,69.30
2019-02-14T22:48:38.649Z,62.60
2019-02-14T22:51:10.319Z,61.37
2019-02-14T22:53:43.738Z,53.77
2019-02-14T22:56:15.494Z,51.67
2019-02-14T22:58:47.104Z,49.77
2019-02-14T23:01:19.080Z,48.80
2019-02-14T23:03:51.057Z,52.00
2019-02-14T23:06:22.746Z,50.93
2019-02-14T23:08:54.772Z,53.20
2019-02-14T23:11:26.524Z,54.13
2019-02-14T23:13:58.185Z,58.33
2019-02-14T23:16:30.165Z,49.70
2019-02-14T23:19:02.112Z,53.57
2019-02-14T23:21:34.025Z,51.13
2019-02-14T23:24:06.236Z,51.53
2019-02-14T23:26:38.306Z,52.30
2019-02-14T23:29:09.979Z,57.33
2019-02-14T23:31:41.590Z,56.50
2019-02-14T23:34:13.266Z,54.03
2019-02-14T23:36:45.249Z,58.10
2019-02-14T23:39:16.847Z,46.97
2019-02-14T23:41:48.454Z,46.50
2019-02-14T23:44:20.058Z,57.70
2019-02-14T23:46:51.738Z,45.33
2019-02-14T23:49:23.388Z,55.23
2019-02-14T23:51:55.539Z,55.80
2019-02-14T23:54:27.322Z,52.63
2019-02-14T23:56:59.242Z,54.40
2019-02-14T23:59:30.842Z,48.67
